Time;durP1;ratioP1;P1;durP2;ratioP2;P2;SDS_P1;SDS_P2;PMS_P1;PMS_P2;Temp;Humidity;BMP_temperature;BMP_pressure;BME280_temperature;BME280_humidity;BME280_pressure;Samples;Min_cycle;Max_cycle;Signal;HPM_P1;HPM_P2
2023/03/07 00:00:46;;;;;;;33.40;12.90;;;;;;;1.53;100.00;100525.75;107178;1282;59022;-80
2023/03/07 00:03:14;;;;;;;32.00;12.60;;;;;;;1.56;100.00;100528.38;106840;1283;59178;-80
2023/03/07 00:05:39;;;;;;;32.00;12.30;;;;;;;1.59;100.00;100524.27;107176;1282;73354;-81
2023/03/07 00:08:05;;;;;;;36.00;12.20;;;;;;;1.61;100.00;100526.29;107151;1282;59152;-81
2023/03/07 00:10:30;;;;;;;29.30;12.40;;;;;;;1.62;100.00;100530.38;107168;1282;58984;-80
2023/03/07 00:12:56;;;;;;;33.20;12.70;;;;;;;1.63;100.00;100528.50;107164;1282;59079;-80
2023/03/07 00:18:43;;;;;;;30.80;11.90;;;;;;;1.64;100.00;100529.35;107162;1282;72378;-80
2023/03/07 00:21:12;;;;;;;30.20;12.10;;;;;;;1.63;100.00;100524.62;107146;1282;59053;-80
2023/03/07 00:23:41;;;;;;;34.60;14.50;;;;;;;1.64;100.00;100527.17;107167;1282;59909;-80
2023/03/07 00:26:12;;;;;;;38.50;14.60;;;;;;;1.64;100.00;100527.52;107204;1282;74514;-80
2023/03/07 00:28:38;;;;;;;36.70;13.60;;;;;;;1.65;100.00;100527.52;107189;1282;73129;-80
2023/03/07 00:31:06;;;;;;;37.10;13.10;;;;;;;1.66;100.00;100527.60;107159;1282;59113;-80
2023/03/07 00:33:32;;;;;;;35.10;11.90;;;;;;;1.66;100.00;100524.95;107157;1282;60797;-81
2023/03/07 00:36:07;;;;;;;34.50;12.70;;;;;;;1.66;100.00;100523.60;106584;1282;59329;-80
2023/03/07 00:38:33;;;;;;;31.00;12.10;;;;;;;1.66;100.00;100523.14;106950;1283;75363;-80
2023/03/07 00:41:07;;;;;;;36.80;12.10;;;;;;;1.68;100.00;100520.79;107165;1282;58943;-80
2023/03/07 00:43:34;;;;;;;27.50;11.70;;;;;;;1.71;100.00;100516.34;106721;1283;71420;-81
2023/03/07 00:46:00;;;;;;;32.50;11.90;;;;;;;1.74;100.00;100512.70;107007;1283;59007;-80
2023/03/07 00:48:27;;;;;;;27.90;11.20;;;;;;;1.77;100.00;100513.80;107037;1283;59180;-80
2023/03/07 00:54:14;;;;;;;27.10;11.30;;;;;;;1.73;100.00;100511.25;107021;1283;73085;-81
2023/03/07 00:56:39;;;;;;;29.40;11.60;;;;;;;1.73;100.00;100511.10;107064;1283;59067;-81
2023/03/07 01:02:27;;;;;;;27.60;11.20;;;;;;;1.75;100.00;100506.33;107004;1283;59185;-81
2023/03/07 01:04:52;;;;;;;27.60;11.60;;;;;;;1.77;100.00;100504.81;107066;1283;59066;-80
2023/03/07 01:07:18;;;;;;;34.90;12.70;;;;;;;1.78;100.00;100504.94;107051;1283;59014;-80
2023/03/07 01:09:45;;;;;;;35.20;11.40;;;;;;;1.79;100.00;100508.65;107026;1283;59385;-81
2023/03/07 01:12:11;;;;;;;28.30;12.50;;;;;;;1.82;100.00;100504.60;107028;1283;58924;-80
2023/03/07 01:14:36;;;;;;;26.60;10.60;;;;;;;1.85;100.00;100501.58;107054;1283;58993;-81
2023/03/07 01:17:02;;;;;;;31.10;12.30;;;;;;;1.86;100.00;100503.02;106751;1283;59136;-80
2023/03/07 01:19:28;;;;;;;26.30;11.80;;;;;;;1.90;100.00;100504.28;107060;1283;72736;-80
2023/03/07 01:21:54;;;;;;;28.60;11.90;;;;;;;1.95;100.00;100509.31;107041;1283;59083;-81
2023/03/07 01:24:19;;;;;;;26.80;11.90;;;;;;;1.99;100.00;100507.95;107076;1283;59373;-80
2023/03/07 01:30:08;;;;;;;34.80;12.40;;;;;;;2.09;100.00;100506.81;107084;1283;74062;-80
2023/03/07 01:32:33;;;;;;;27.80;12.20;;;;;;;2.15;100.00;100503.98;106955;1285;73616;-80
2023/03/07 01:34:59;;;;;;;26.60;11.70;;;;;;;2.19;100.00;100500.05;107070;1283;59507;-81
2023/03/07 01:37:24;;;;;;;28.40;11.50;;;;;;;2.19;100.00;100501.23;107058;1283;59056;-81
2023/03/07 01:39:51;;;;;;;28.00;10.60;;;;;;;2.22;100.00;100500.23;107052;1283;59317;-80
2023/03/07 01:42:17;;;;;;;23.70;10.40;;;;;;;2.27;100.00;100498.57;107057;1283;59061;-80
2023/03/07 01:45:06;;;;;;;27.50;11.30;;;;;;;2.31;100.00;100496.95;107126;1282;59053;-80
2023/03/07 01:47:33;;;;;;;28.20;11.00;;;;;;;2.33;100.00;100493.27;107170;1282;59864;-81
2023/03/07 01:50:03;;;;;;;25.10;11.30;;;;;;;2.36;100.00;100491.30;107199;1283;59260;-80
2023/03/07 01:55:50;;;;;;;25.80;10.50;;;;;;;2.40;100.00;100494.31;107174;1282;72569;-80
2023/03/07 01:58:15;;;;;;;31.00;11.70;;;;;;;2.42;100.00;100494.14;107175;1283;59140;-80
2023/03/07 02:07:30;;;;;;;44.00;17.20;;;;;;;2.44;100.00;100500.61;107168;1282;73354;-81
2023/03/07 02:09:57;;;;;;;39.80;16.30;;;;;;;2.47;100.00;100497.28;107173;1283;74187;-80
2023/03/07 02:12:23;;;;;;;35.60;14.50;;;;;;;2.47;100.00;100492.05;107166;1283;72417;-80
2023/03/07 02:14:49;;;;;;;34.00;13.10;;;;;;;2.47;100.00;100485.21;107175;1283;59060;-80
2023/03/07 02:17:15;;;;;;;28.40;11.80;;;;;;;2.47;100.00;100489.77;107180;1283;59115;-81
2023/03/07 02:23:03;;;;;;;29.90;12.10;;;;;;;2.48;100.00;100483.95;107217;1282;72159;-80
2023/03/07 02:28:51;;;;;;;28.70;12.10;;;;;;;2.52;100.00;100480.45;107134;1283;59794;-81
2023/03/07 02:31:17;;;;;;;26.80;11.10;;;;;;;2.50;100.00;100480.51;106808;1283;59173;-80
2023/03/07 02:33:43;;;;;;;27.00;11.80;;;;;;;2.45;100.00;100478.56;106809;1283;59131;-80
2023/03/07 02:36:12;;;;;;;28.20;11.00;;;;;;;2.43;100.00;100474.64;107204;1283;59285;-80
2023/03/07 02:38:41;;;;;;;27.80;11.20;;;;;;;2.42;100.00;100478.77;106811;1283;72397;-80
2023/03/07 02:41:10;;;;;;;31.00;11.40;;;;;;;2.41;100.00;100478.81;107149;1282;61119;-80
2023/03/07 02:43:36;;;;;;;32.90;11.90;;;;;;;2.39;100.00;100475.05;106599;1283;205665;-81
2023/03/07 02:46:02;;;;;;;25.80;10.80;;;;;;;2.39;100.00;100476.72;107194;1283;59005;-80
2023/03/07 02:48:27;;;;;;;29.10;12.10;;;;;;;2.36;100.00;100477.64;107185;1282;59055;-81
2023/03/07 02:54:15;;;;;;;29.20;11.70;;;;;;;2.31;100.00;100478.99;107172;1283;60796;-80
2023/03/07 02:56:41;;;;;;;33.80;13.20;;;;;;;2.30;100.00;100480.23;107192;1282;59051;-81
2023/03/07 02:59:06;;;;;;;32.10;12.30;;;;;;;2.29;100.00;100475.60;107212;1283;58999;-81
2023/03/07 03:01:32;;;;;;;35.40;13.00;;;;;;;2.27;100.00;100472.59;107168;1283;59092;-80
2023/03/07 03:03:57;;;;;;;30.10;12.70;;;;;;;2.26;100.00;100469.08;107204;1283;59185;-80
2023/03/07 03:06:23;;;;;;;32.30;12.80;;;;;;;2.24;100.00;100472.38;107180;1283;59186;-80
2023/03/07 03:08:48;;;;;;;31.30;12.60;;;;;;;2.20;100.00;100469.04;107153;1282;59109;-81
2023/03/07 03:11:14;;;;;;;30.00;13.50;;;;;;;2.14;100.00;100469.27;107180;1282;59854;-80
2023/03/07 03:13:39;;;;;;;31.20;13.10;;;;;;;2.12;100.00;100467.66;107112;1282;59014;-80
2023/03/07 03:16:05;;;;;;;32.10;13.70;;;;;;;2.09;100.00;100465.58;107289;1282;59389;-80
2023/03/07 03:18:31;;;;;;;34.60;14.50;;;;;;;2.05;100.00;100466.98;106613;1282;75140;-81
2023/03/07 03:20:56;;;;;;;34.00;14.30;;;;;;;2.01;100.00;100464.83;107210;1282;59064;-81
2023/03/07 03:23:22;;;;;;;38.40;15.00;;;;;;;2.01;100.00;100462.73;107126;1282;59090;-81
2023/03/07 03:26:10;;;;;;;34.80;13.50;;;;;;;2.00;100.00;100460.57;107185;1282;58943;-80
2023/03/07 03:31:57;;;;;;;38.60;14.80;;;;;;;1.94;100.00;100456.61;107167;1282;74259;-80
2023/03/07 03:34:23;;;;;;;35.30;14.10;;;;;;;1.94;100.00;100455.70;107151;1286;58984;-80
2023/03/07 03:36:48;;;;;;;34.30;14.70;;;;;;;1.93;100.00;100452.64;107135;1282;59068;-80
2023/03/07 03:42:36;;;;;;;39.40;15.50;;;;;;;1.93;100.00;100451.20;107135;1286;59041;-81
2023/03/07 03:45:01;;;;;;;35.30;15.40;;;;;;;1.93;100.00;100446.95;107166;1283;59046;-80
2023/03/07 03:47:26;;;;;;;36.40;14.30;;;;;;;1.92;100.00;100450.31;107202;1282;59120;-80
2023/03/07 03:49:52;;;;;;;36.50;15.00;;;;;;;1.91;100.00;100448.52;107125;1283;59335;-80
2023/03/07 03:52:17;;;;;;;38.20;16.30;;;;;;;1.90;100.00;100448.94;107225;1283;58998;-80
2023/03/07 03:54:46;;;;;;;37.90;16.00;;;;;;;1.89;100.00;100444.94;107190;1282;59433;-80
2023/03/07 03:57:14;;;;;;;36.20;14.50;;;;;;;1.88;100.00;100440.23;106700;1286;74345;-80
2023/03/07 03:59:40;;;;;;;40.90;15.80;;;;;;;1.87;100.00;100439.25;106348;1286;71166;-80
2023/03/07 04:05:27;;;;;;;42.60;16.90;;;;;;;1.87;100.00;100434.02;106689;1286;59959;-80
2023/03/07 04:07:52;;;;;;;41.50;16.70;;;;;;;1.87;100.00;100436.42;106648;1288;59616;-80
2023/03/07 04:10:18;;;;;;;45.60;17.70;;;;;;;1.87;100.00;100438.48;106667;1286;59430;-80
2023/03/07 04:12:44;;;;;;;46.40;18.30;;;;;;;1.88;100.00;100436.98;106701;1286;59053;-80
2023/03/07 04:15:11;;;;;;;43.20;17.40;;;;;;;1.91;100.00;100442.60;106712;1286;59264;-80
2023/03/07 04:17:36;;;;;;;46.00;17.60;;;;;;;1.92;100.00;100442.43;106638;1286;59178;-80
2023/03/07 04:20:03;;;;;;;44.60;17.80;;;;;;;1.92;100.00;100443.33;106728;1286;59256;-80
2023/03/07 04:22:29;;;;;;;49.20;17.70;;;;;;;1.94;100.00;100445.41;106430;1286;71530;-80
2023/03/07 04:24:54;;;;;;;37.10;17.10;;;;;;;1.95;100.00;100441.41;106672;1286;59439;-80
2023/03/07 04:27:19;;;;;;;45.00;17.10;;;;;;;1.97;100.00;100443.93;106736;1286;59173;-80
2023/03/07 04:29:45;;;;;;;38.70;16.60;;;;;;;1.98;100.00;100446.11;107162;1286;59185;-80
2023/03/07 04:32:10;;;;;;;42.30;17.10;;;;;;;2.00;100.00;100443.88;107206;1283;59154;-80
2023/03/07 04:34:36;;;;;;;34.90;14.70;;;;;;;2.02;100.00;100443.92;107186;1282;59280;-80
2023/03/07 04:37:01;;;;;;;40.50;16.40;;;;;;;2.06;100.00;100444.54;107157;1283;59117;-81
2023/03/07 04:39:27;;;;;;;40.10;16.90;;;;;;;2.10;100.00;100448.33;106654;1283;59981;-81
2023/03/07 04:41:52;;;;;;;42.20;17.20;;;;;;;2.16;100.00;100451.42;107170;1282;59106;-80
2023/03/07 04:44:19;;;;;;;38.30;16.50;;;;;;;2.23;100.00;100446.41;106653;1283;59125;-80
2023/03/07 04:46:45;;;;;;;39.40;16.70;;;;;;;2.31;100.00;100447.09;107036;1283;60917;-81
2023/03/07 04:49:10;;;;;;;44.30;16.90;;;;;;;2.39;100.00;100449.31;107021;1283;59162;-81
2023/03/07 04:51:36;;;;;;;38.50;16.50;;;;;;;2.43;100.00;100450.23;107042;1283;59055;-80
2023/03/07 04:54:01;;;;;;;43.90;16.60;;;;;;;2.49;100.00;100450.79;106983;1289;59104;-81
2023/03/07 04:56:27;;;;;;;41.90;16.40;;;;;;;2.55;100.00;100453.92;107093;1283;59104;-80
2023/03/07 04:58:52;;;;;;;39.60;16.00;;;;;;;2.62;100.00;100452.35;107065;1283;59126;-80
2023/03/07 05:04:40;;;;;;;42.00;15.40;;;;;;;2.78;100.00;100458.70;107033;1283;72393;-80
2023/03/07 05:07:05;;;;;;;41.40;17.00;;;;;;;2.84;100.00;100458.96;107051;1283;59048;-80
2023/03/07 05:09:31;;;;;;;45.10;17.60;;;;;;;2.92;100.00;100459.78;107078;1283;59192;-81
2023/03/07 05:11:56;;;;;;;41.50;15.60;;;;;;;3.03;100.00;100460.10;106729;1288;59078;-80
2023/03/07 05:14:21;;;;;;;50.80;18.10;;;;;;;3.17;100.00;100457.27;107062;1283;59106;-81
2023/03/07 05:16:47;;;;;;;44.80;17.70;;;;;;;3.25;100.00;100456.40;106668;1283;59090;-80
2023/03/07 05:19:12;;;;;;;52.10;18.80;;;;;;;3.31;100.00;100455.45;107032;1283;59047;-81
2023/03/07 05:21:39;;;;;;;47.60;18.30;;;;;;;3.38;100.00;100454.27;107060;1283;59119;-80
2023/03/07 05:24:06;;;;;;;48.30;18.30;;;;;;;3.48;100.00;100455.20;107055;1283;59113;-80
2023/03/07 05:26:32;;;;;;;52.10;18.80;;;;;;;3.56;100.00;100457.86;107057;1283;59380;-81
2023/03/07 05:28:58;;;;;;;51.80;19.50;;;;;;;3.63;100.00;100457.52;106967;1283;59435;-81
2023/03/07 05:37:29;;;;;;;43.00;15.90;;;;;;;3.90;100.00;100462.46;107070;1283;72446;-80
2023/03/07 05:43:16;;;;;;;40.30;14.70;;;;;;;4.18;100.00;100453.48;107060;1283;59834;-83
2023/03/07 05:45:41;;;;;;;32.80;12.60;;;;;;;4.36;100.00;100451.64;107227;1283;58968;-83
2023/03/07 05:48:07;;;;;;;31.30;12.00;;;;;;;4.53;100.00;100450.48;107189;1282;59042;-83
2023/03/07 05:50:32;;;;;;;29.10;11.30;;;;;;;4.72;100.00;100452.30;107188;1282;59082;-81
2023/03/07 05:52:58;;;;;;;27.90;10.80;;;;;;;4.94;100.00;100450.49;107212;1282;59045;-81
2023/03/07 05:55:23;;;;;;;30.30;11.20;;;;;;;5.11;100.00;100453.35;107162;1282;61000;-82
2023/03/07 05:57:52;;;;;;;25.30;10.30;;;;;;;5.24;100.00;100456.13;107160;1283;59012;-83
2023/03/07 06:00:19;;;;;;;46.20;19.70;;;;;;;5.31;100.00;100453.96;106968;1283;73183;-83
2023/03/07 06:02:44;;;;;;;30.60;12.80;;;;;;;5.33;100.00;100454.74;106769;1283;72224;-83
2023/03/07 06:05:13;;;;;;;31.80;12.50;;;;;;;5.30;100.00;100453.45;107222;1283;59143;-82
2023/03/07 06:11:12;;;;;;;40.00;15.90;;;;;;;5.16;100.00;100459.44;107194;1283;74278;-83
2023/03/07 06:13:37;;;;;;;33.50;13.20;;;;;;;5.12;100.00;100456.78;106461;1288;73882;-83
2023/03/07 06:16:03;;;;;;;29.60;12.70;;;;;;;5.35;100.00;100454.11;106740;1283;59123;-83
2023/03/07 06:18:29;;;;;;;25.60;11.10;;;;;;;5.75;100.00;100448.34;107158;1283;58988;-83
2023/03/07 06:24:16;;;;;;;25.50;8.80;;;;;;;6.78;100.00;100453.02;107159;1282;74476;-83
2023/03/07 06:26:42;;;;;;;24.50;10.10;;;;;;;6.99;100.00;100448.11;107237;1282;58969;-81
2023/03/07 06:29:07;;;;;;;23.60;10.00;;;;;;;7.11;100.00;100440.98;107213;1282;59056;-80
2023/03/07 06:31:33;;;;;;;25.10;9.80;;;;;;;6.96;100.00;100440.61;107194;1282;59014;-81
2023/03/07 06:33:58;;;;;;;29.00;9.70;;;;;;;6.77;100.00;100442.23;107258;1282;59070;-80
2023/03/07 06:36:24;;;;;;;37.20;11.50;;;;;;;6.76;100.00;100433.26;107153;1282;73495;-80
2023/03/07 06:38:50;;;;;;;31.00;11.00;;;;;;;6.80;100.00;100434.80;107180;1282;59164;-82
2023/03/07 06:41:15;;;;;;;32.00;11.00;;;;;;;7.00;100.00;100431.13;107175;1282;58986;-80
2023/03/07 06:47:03;;;;;;;24.60;9.40;;;;;;;7.69;100.00;100427.09;107183;1282;73369;-81
2023/03/07 06:49:28;;;;;;;19.30;7.80;;;;;;;7.92;100.00;100423.77;107200;1282;59107;-81
2023/03/07 06:51:54;;;;;;;22.40;9.10;;;;;;;8.15;100.00;100426.59;106964;1283;59227;-81
2023/03/07 06:54:20;;;;;;;25.00;8.30;;;;;;;8.13;100.00;100424.11;106975;1282;58999;-81
2023/03/07 06:56:45;;;;;;;18.00;7.40;;;;;;;8.31;100.00;100419.92;106716;1283;59058;-81
2023/03/07 06:59:11;;;;;;;18.70;7.40;;;;;;;8.33;100.00;100421.67;106739;1283;59250;-82
2023/03/07 07:01:37;;;;;;;17.20;6.80;;;;;;;8.23;100.00;100422.67;106676;1283;73528;-80
2023/03/07 07:04:03;;;;;;;23.10;7.30;;;;;;;8.05;100.00;100417.39;107247;1282;59318;-81
2023/03/07 07:06:29;;;;;;;18.50;7.40;;;;;;;7.93;100.00;100418.71;107213;1282;58983;-81
2023/03/07 07:08:56;;;;;;;21.10;7.40;;;;;;;7.79;100.00;100414.38;107208;1282;59089;-81
2023/03/07 07:11:22;;;;;;;17.60;7.70;;;;;;;7.68;100.00;100408.75;107230;1282;59120;-81
2023/03/07 07:13:49;;;;;;;20.60;8.00;;;;;;;7.58;100.00;100411.59;107170;1282;59066;-81
2023/03/07 07:16:16;;;;;;;20.40;7.20;;;;;;;7.52;100.00;100414.29;107192;1282;59258;-81
2023/03/07 07:18:43;;;;;;;25.40;8.80;;;;;;;7.52;100.00;100420.89;107038;1283;59083;-81
2023/03/07 07:21:08;;;;;;;21.30;7.60;;;;;;;7.58;100.00;100414.01;107214;1282;59401;-81
2023/03/07 07:23:34;;;;;;;20.00;8.80;;;;;;;7.65;100.00;100410.79;106730;1288;59137;-81
2023/03/07 07:26:00;;;;;;;18.80;8.00;;;;;;;7.83;100.00;100412.55;107164;1282;58976;-80
2023/03/07 07:28:26;;;;;;;18.80;8.30;;;;;;;7.87;100.00;100413.65;107200;1282;59088;-81
2023/03/07 07:30:52;;;;;;;24.80;10.40;;;;;;;7.88;100.00;100408.29;107261;1282;59067;-81
2023/03/07 07:33:18;;;;;;;27.40;10.90;;;;;;;7.94;100.00;100412.23;107216;1282;59137;-81
2023/03/07 07:35:44;;;;;;;37.10;13.90;;;;;;;8.01;100.00;100414.92;107198;1282;72541;-81
2023/03/07 07:38:11;;;;;;;48.00;17.50;;;;;;;8.07;100.00;100412.10;106705;1287;59421;-81
2023/03/07 07:40:37;;;;;;;35.20;13.60;;;;;;;8.08;100.00;100415.60;106697;1286;59136;-80
2023/03/07 07:43:03;;;;;;;31.20;11.90;;;;;;;8.18;100.00;100417.57;106728;1286;59221;-81
2023/03/07 07:45:28;;;;;;;29.50;12.30;;;;;;;8.27;100.00;100423.91;106740;1286;59144;-81
2023/03/07 07:47:54;;;;;;;28.30;11.70;;;;;;;8.41;100.00;100424.85;106332;1286;59053;-82
2023/03/07 07:50:21;;;;;;;28.30;12.10;;;;;;;9.23;100.00;100415.52;106722;1286;59414;-81
2023/03/07 07:52:51;;;;;;;266.60;114.60;;;;;;;10.03;100.00;100411.45;106577;1286;59129;-81
2023/03/07 07:55:17;;;;;;;177.90;75.80;;;;;;;10.13;100.00;100407.69;106597;1286;75164;-81
2023/03/07 07:57:43;;;;;;;61.40;28.90;;;;;;;10.08;100.00;100404.85;106740;1286;59160;-81
2023/03/07 08:00:11;;;;;;;44.60;19.70;;;;;;;10.08;100.00;100407.44;106529;1286;59337;-82
2023/03/07 08:02:37;;;;;;;71.30;33.20;;;;;;;10.13;100.00;100408.50;106437;1286;59423;-82
2023/03/07 08:05:06;;;;;;;33.20;13.30;;;;;;;10.06;99.99;100413.23;106424;1286;59133;-82
2023/03/07 08:07:32;;;;;;;32.20;12.80;;;;;;;9.90;99.84;100414.23;106725;1286;75362;-82
2023/03/07 08:09:57;;;;;;;26.40;10.90;;;;;;;9.81;99.96;100412.27;106754;1286;58957;-82
2023/03/07 08:12:23;;;;;;;26.30;11.80;;;;;;;9.64;100.00;100418.89;106963;1283;59381;-82
2023/03/07 08:14:49;;;;;;;30.50;13.70;;;;;;;9.50;100.00;100419.27;106812;1283;59117;-82
2023/03/07 08:17:15;;;;;;;30.70;12.80;;;;;;;9.43;100.00;100413.98;107145;1283;59410;-82
2023/03/07 08:19:40;;;;;;;35.60;13.50;;;;;;;9.22;100.00;100410.64;106676;1283;72259;-82
2023/03/07 08:22:06;;;;;;;29.00;12.20;;;;;;;9.03;100.00;100408.20;107070;1283;59928;-82
2023/03/07 08:24:34;;;;;;;28.40;12.30;;;;;;;8.95;100.00;100405.93;107085;1283;59027;-82
2023/03/07 08:27:00;;;;;;;45.60;17.40;;;;;;;9.00;100.00;100403.51;106890;1283;59087;-82
2023/03/07 08:29:26;;;;;;;32.00;13.50;;;;;;;9.11;100.00;100401.13;106875;1283;59114;-82
2023/03/07 08:31:53;;;;;;;59.60;23.70;;;;;;;9.31;100.00;100401.36;107087;1283;59061;-82
2023/03/07 08:34:19;;;;;;;57.30;23.50;;;;;;;9.42;100.00;100403.34;107017;1283;59056;-82
2023/03/07 08:36:45;;;;;;;58.30;25.10;;;;;;;9.32;100.00;100401.69;107039;1283;58993;-82
2023/03/07 08:39:11;;;;;;;31.90;13.80;;;;;;;9.37;100.00;100398.39;106487;1283;59111;-83
2023/03/07 08:41:37;;;;;;;36.50;13.30;;;;;;;9.53;100.00;100400.90;107065;1283;59041;-82
2023/03/07 08:44:03;;;;;;;31.80;12.50;;;;;;;9.57;100.00;100399.47;107058;1283;59149;-81
2023/03/07 08:46:28;;;;;;;26.30;11.50;;;;;;;9.63;100.00;100403.98;107065;1285;59068;-81
2023/03/07 08:48:54;;;;;;;29.60;11.80;;;;;;;9.68;100.00;100400.95;106761;1283;59188;-81
2023/03/07 08:51:20;;;;;;;32.90;12.80;;;;;;;9.58;100.00;100401.68;106844;1285;59025;-81
2023/03/07 08:53:47;;;;;;;24.90;11.10;;;;;;;9.46;100.00;100398.53;107103;1283;59058;-81
2023/03/07 08:56:16;;;;;;;28.60;12.70;;;;;;;9.31;100.00;100395.86;106522;1283;72209;-82
2023/03/07 08:58:42;;;;;;;35.90;13.90;;;;;;;9.23;100.00;100395.30;107018;1283;61912;-80
2023/03/07 09:01:09;;;;;;;31.60;13.20;;;;;;;9.10;100.00;100395.31;107077;1283;59117;-80
2023/03/07 09:03:35;;;;;;;36.50;14.10;;;;;;;8.97;100.00;100393.42;107026;1283;59127;-81
2023/03/07 09:06:02;;;;;;;30.10;13.40;;;;;;;8.95;100.00;100391.19;106636;1283;58990;-80
2023/03/07 09:08:27;;;;;;;38.50;14.70;;;;;;;8.94;100.00;100386.17;106541;1283;59251;-81
2023/03/07 09:10:53;;;;;;;35.20;15.10;;;;;;;8.99;100.00;100384.23;106657;1283;59150;-80
2023/03/07 09:13:19;;;;;;;39.00;15.50;;;;;;;9.10;100.00;100380.48;106693;1283;59122;-79
2023/03/07 09:15:44;;;;;;;41.80;16.00;;;;;;;9.19;100.00;100377.81;107096;1283;59052;-79
2023/03/07 09:18:10;;;;;;;41.00;14.60;;;;;;;9.37;100.00;100379.46;106660;1283;59165;-79
2023/03/07 09:20:40;;;;;;;39.20;14.80;;;;;;;9.50;100.00;100374.14;106728;1283;59881;-79
2023/03/07 09:23:07;;;;;;;28.60;13.60;;;;;;;9.80;100.00;100370.28;107069;1283;60995;-79
2023/03/07 09:25:33;;;;;;;30.50;12.40;;;;;;;10.46;100.00;100371.76;107075;1283;75419;-79
2023/03/07 09:27:59;;;;;;;30.30;13.10;;;;;;;11.00;98.70;100369.04;107088;1283;58958;-79
2023/03/07 09:30:27;;;;;;;33.00;14.00;;;;;;;11.08;96.64;100362.67;106810;1283;59121;-79
2023/03/07 09:32:52;;;;;;;29.90;13.70;;;;;;;11.30;97.00;100360.80;106564;1283;60274;-80
2023/03/07 09:35:18;;;;;;;29.90;12.80;;;;;;;11.49;94.20;100358.36;106702;1283;59116;-79
2023/03/07 09:37:44;;;;;;;31.00;13.60;;;;;;;11.71;92.57;100361.23;107104;1283;59008;-81
2023/03/07 09:40:51;;;;;;;35.40;15.00;;;;;;;11.90;90.58;100353.11;107133;1283;59078;-79
2023/03/07 09:50:10;;;;;;;34.40;13.60;;;;;;;12.45;82.35;100344.17;107188;1282;60107;-80
2023/03/07 09:52:38;;;;;;;24.60;11.30;;;;;;;12.54;83.72;100344.16;107210;1282;75581;-79
2023/03/07 09:55:10;;;;;;;32.40;13.00;;;;;;;12.62;81.60;100344.33;107005;1283;73243;-80
2023/03/07 09:57:48;;;;;;;28.60;12.40;;;;;;;12.64;80.12;100340.80;106682;1283;72428;-79
2023/03/07 10:00:30;;;;;;;27.70;12.60;;;;;;;12.37;78.78;100334.84;107195;1282;60241;-80
2023/03/07 10:03:17;;;;;;;34.80;13.60;;;;;;;12.07;78.98;100331.89;106851;1283;59174;-80
2023/03/07 10:05:49;;;;;;;28.90;13.10;;;;;;;12.03;80.53;100333.10;107216;1282;75210;-80
2023/03/07 10:08:21;;;;;;;35.80;14.70;;;;;;;12.03;79.83;100324.95;107151;1282;74150;-79
2023/03/07 10:11:17;;;;;;;37.20;15.10;;;;;;;11.91;79.89;100321.69;107140;1282;72767;-80
2023/03/07 10:14:03;;;;;;;36.10;15.10;;;;;;;11.86;80.87;100319.27;107171;1282;61221;-81
2023/03/07 10:16:46;;;;;;;39.50;15.00;;;;;;;12.07;82.13;100311.53;107230;1282;61067;-81
2023/03/07 10:19:35;;;;;;;44.50;16.20;;;;;;;12.20;79.89;100305.75;107172;1282;75415;-80
2023/03/07 10:22:26;;;;;;;35.80;15.40;;;;;;;12.26;79.59;100301.73;107162;1283;71450;-82
2023/03/07 10:25:07;;;;;;;38.10;15.40;;;;;;;12.43;79.55;100300.88;107167;1282;73399;-81
2023/03/07 10:27:33;;;;;;;34.90;14.90;;;;;;;12.52;78.58;100288.66;106908;1283;59539;-80
2023/03/07 10:30:00;;;;;;;38.40;16.40;;;;;;;12.56;77.94;100285.06;107242;1282;59115;-81
2023/03/07 10:32:45;;;;;;;35.10;15.70;;;;;;;12.62;77.57;100282.92;107210;1282;59023;-81
2023/03/07 10:35:10;;;;;;;38.00;17.00;;;;;;;12.59;76.85;100276.34;107199;1282;74182;-80
2023/03/07 10:37:54;;;;;;;39.60;16.20;;;;;;;12.64;77.06;100277.94;106823;1283;59137;-81
2023/03/07 10:40:22;;;;;;;30.80;13.50;;;;;;;12.74;76.49;100276.67;107188;1282;60201;-81
2023/03/07 10:42:48;;;;;;;32.90;13.10;;;;;;;12.78;76.07;100270.52;107227;1282;60088;-81
